sensor_id;sensor_type;location;lat;lon;timestamp;P1;durP1;ratioP1;P2;durP2;ratioP2
75191;SDS011;63771;52.580;9.734;2024-03-02T00:00:00;12.57;;;7.53;;
75191;SDS011;63771;52.580;9.734;2024-03-02T00:02:34;12.00;;;7.20;;
75191;SDS011;63771;52.580;9.734;2024-03-02T00:05:04;10.63;;;7.70;;
75191;SDS011;63771;52.580;9.734;2024-03-02T00:07:30;11.00;;;7.65;;
75191;SDS011;63771;52.580;9.734;2024-03-02T00:09:56;10.98;;;7.75;;
75191;SDS011;63771;52.580;9.734;2024-03-02T00:12:22;10.60;;;7.03;;
75191;SDS011;63771;52.580;9.734;2024-03-02T00:14:47;8.90;;;7.22;;
75191;SDS011;63771;52.580;9.734;2024-03-02T00:17:16;10.60;;;7.03;;
75191;SDS011;63771;52.580;9.734;2024-03-02T00:19:46;9.63;;;7.30;;
75191;SDS011;63771;52.580;9.734;2024-03-02T00:22:11;10.60;;;8.43;;
75191;SDS011;63771;52.580;9.734;2024-03-02T00:24:37;9.80;;;7.63;;
75191;SDS011;63771;52.580;9.734;2024-03-02T00:27:03;11.13;;;7.13;;
75191;SDS011;63771;52.580;9.734;2024-03-02T00:29:30;12.02;;;8.30;;
75191;SDS011;63771;52.580;9.734;2024-03-02T00:31:55;9.15;;;7.88;;
75191;SDS011;63771;52.580;9.734;2024-03-02T00:34:21;9.30;;;7.43;;
75191;SDS011;63771;52.580;9.734;2024-03-02T00:36:47;10.38;;;7.40;;
75191;SDS011;63771;52.580;9.734;2024-03-02T00:39:13;10.38;;;7.45;;
75191;SDS011;63771;52.580;9.734;2024-03-02T00:41:40;11.70;;;8.40;;
75191;SDS011;63771;52.580;9.734;2024-03-02T00:44:07;9.52;;;7.40;;
75191;SDS011;63771;52.580;9.734;2024-03-02T00:46:37;12.77;;;8.52;;
75191;SDS011;63771;52.580;9.734;2024-03-02T00:49:05;9.13;;;7.63;;
75191;SDS011;63771;52.580;9.734;2024-03-02T00:51:37;10.32;;;7.45;;
75191;SDS011;63771;52.580;9.734;2024-03-02T00:54:04;9.68;;;8.43;;
75191;SDS011;63771;52.580;9.734;2024-03-02T00:56:31;9.70;;;8.60;;
75191;SDS011;63771;52.580;9.734;2024-03-02T00:58:57;10.23;;;7.15;;
75191;SDS011;63771;52.580;9.734;2024-03-02T01:01:23;9.67;;;7.40;;
75191;SDS011;63771;52.580;9.734;2024-03-02T01:03:48;8.88;;;7.03;;
75191;SDS011;63771;52.580;9.734;2024-03-02T01:06:15;9.68;;;7.45;;
75191;SDS011;63771;52.580;9.734;2024-03-02T01:08:41;16.23;;;8.65;;
75191;SDS011;63771;52.580;9.734;2024-03-02T01:11:07;8.30;;;7.15;;
75191;SDS011;63771;52.580;9.734;2024-03-02T01:13:32;8.77;;;7.72;;
75191;SDS011;63771;52.580;9.734;2024-03-02T01:15:58;10.95;;;8.02;;
75191;SDS011;63771;52.580;9.734;2024-03-02T01:18:24;12.80;;;8.25;;
75191;SDS011;63771;52.580;9.734;2024-03-02T01:20:49;11.63;;;7.65;;
75191;SDS011;63771;52.580;9.734;2024-03-02T01:23:17;11.23;;;8.02;;
75191;SDS011;63771;52.580;9.734;2024-03-02T01:25:49;9.80;;;8.15;;
75191;SDS011;63771;52.580;9.734;2024-03-02T01:28:15;10.68;;;7.55;;
75191;SDS011;63771;52.580;9.734;2024-03-02T01:30:41;9.27;;;7.30;;
75191;SDS011;63771;52.580;9.734;2024-03-02T01:33:07;10.50;;;7.72;;
75191;SDS011;63771;52.580;9.734;2024-03-02T01:35:32;9.43;;;7.38;;
75191;SDS011;63771;52.580;9.734;2024-03-02T01:37:58;10.90;;;7.85;;
75191;SDS011;63771;52.580;9.734;2024-03-02T01:40:23;11.30;;;8.18;;
75191;SDS011;63771;52.580;9.734;2024-03-02T01:42:52;10.75;;;7.72;;
75191;SDS011;63771;52.580;9.734;2024-03-02T01:45:23;11.73;;;8.77;;
75191;SDS011;63771;52.580;9.734;2024-03-02T01:47:48;13.23;;;8.35;;
75191;SDS011;63771;52.580;9.734;2024-03-02T01:50:14;11.70;;;8.48;;
75191;SDS011;63771;52.580;9.734;2024-03-02T01:52:40;11.95;;;7.70;;
75191;SDS011;63771;52.580;9.734;2024-03-02T01:55:06;10.13;;;7.95;;
75191;SDS011;63771;52.580;9.734;2024-03-02T01:57:32;12.38;;;7.93;;
75191;SDS011;63771;52.580;9.734;2024-03-02T01:59:58;11.48;;;9.18;;
75191;SDS011;63771;52.580;9.734;2024-03-02T02:02:25;12.98;;;9.05;;
75191;SDS011;63771;52.580;9.734;2024-03-02T02:04:50;13.77;;;9.37;;
75191;SDS011;63771;52.580;9.734;2024-03-02T02:07:15;13.10;;;9.57;;
75191;SDS011;63771;52.580;9.734;2024-03-02T02:09:41;14.63;;;9.30;;
75191;SDS011;63771;52.580;9.734;2024-03-02T02:12:07;11.45;;;9.15;;
75191;SDS011;63771;52.580;9.734;2024-03-02T02:14:32;14.75;;;9.30;;
75191;SDS011;63771;52.580;9.734;2024-03-02T02:16:58;13.90;;;8.38;;
75191;SDS011;63771;52.580;9.734;2024-03-02T02:19:24;14.07;;;8.98;;
75191;SDS011;63771;52.580;9.734;2024-03-02T02:21:49;13.67;;;8.90;;
75191;SDS011;63771;52.580;9.734;2024-03-02T02:24:14;14.37;;;10.00;;
75191;SDS011;63771;52.580;9.734;2024-03-02T02:26:39;12.97;;;9.00;;
75191;SDS011;63771;52.580;9.734;2024-03-02T02:29:05;15.23;;;9.77;;
75191;SDS011;63771;52.580;9.734;2024-03-02T02:31:37;11.93;;;8.77;;
75191;SDS011;63771;52.580;9.734;2024-03-02T02:34:03;17.23;;;9.40;;
75191;SDS011;63771;52.580;9.734;2024-03-02T02:36:28;13.53;;;8.60;;
75191;SDS011;63771;52.580;9.734;2024-03-02T02:38:53;11.20;;;8.20;;
75191;SDS011;63771;52.580;9.734;2024-03-02T02:41:19;14.18;;;8.52;;
75191;SDS011;63771;52.580;9.734;2024-03-02T02:43:44;14.53;;;9.63;;
75191;SDS011;63771;52.580;9.734;2024-03-02T02:46:10;14.60;;;9.93;;
75191;SDS011;63771;52.580;9.734;2024-03-02T02:48:35;15.57;;;11.07;;
75191;SDS011;63771;52.580;9.734;2024-03-02T02:51:01;15.07;;;9.88;;
75191;SDS011;63771;52.580;9.734;2024-03-02T02:53:26;13.95;;;10.13;;
75191;SDS011;63771;52.580;9.734;2024-03-02T02:55:51;12.23;;;9.07;;
75191;SDS011;63771;52.580;9.734;2024-03-02T02:58:17;12.57;;;9.70;;
75191;SDS011;63771;52.580;9.734;2024-03-02T03:00:42;13.57;;;9.23;;
75191;SDS011;63771;52.580;9.734;2024-03-02T03:03:07;14.95;;;9.93;;
75191;SDS011;63771;52.580;9.734;2024-03-02T03:05:33;15.33;;;10.20;;
75191;SDS011;63771;52.580;9.734;2024-03-02T03:07:58;12.27;;;9.27;;
75191;SDS011;63771;52.580;9.734;2024-03-02T03:10:23;16.17;;;10.10;;
75191;SDS011;63771;52.580;9.734;2024-03-02T03:12:51;13.95;;;10.23;;
75191;SDS011;63771;52.580;9.734;2024-03-02T03:15:16;15.05;;;10.25;;
75191;SDS011;63771;52.580;9.734;2024-03-02T03:17:42;15.13;;;11.32;;
75191;SDS011;63771;52.580;9.734;2024-03-02T03:20:07;13.70;;;9.40;;
75191;SDS011;63771;52.580;9.734;2024-03-02T03:22:36;16.50;;;9.88;;
75191;SDS011;63771;52.580;9.734;2024-03-02T03:25:02;16.02;;;10.68;;
75191;SDS011;63771;52.580;9.734;2024-03-02T03:27:28;18.08;;;11.13;;
75191;SDS011;63771;52.580;9.734;2024-03-02T03:29:53;15.93;;;10.13;;
75191;SDS011;63771;52.580;9.734;2024-03-02T03:32:19;18.05;;;10.98;;
75191;SDS011;63771;52.580;9.734;2024-03-02T03:34:44;17.65;;;10.70;;
75191;SDS011;63771;52.580;9.734;2024-03-02T03:37:10;14.73;;;10.75;;
75191;SDS011;63771;52.580;9.734;2024-03-02T03:39:35;14.70;;;9.87;;
75191;SDS011;63771;52.580;9.734;2024-03-02T03:42:01;17.27;;;11.18;;
75191;SDS011;63771;52.580;9.734;2024-03-02T03:44:26;15.20;;;10.13;;
75191;SDS011;63771;52.580;9.734;2024-03-02T03:46:51;16.30;;;10.07;;
75191;SDS011;63771;52.580;9.734;2024-03-02T03:49:17;17.08;;;11.00;;
75191;SDS011;63771;52.580;9.734;2024-03-02T03:51:43;15.63;;;10.23;;
75191;SDS011;63771;52.580;9.734;2024-03-02T03:54:08;19.43;;;10.67;;
75191;SDS011;63771;52.580;9.734;2024-03-02T03:56:36;18.40;;;11.15;;
75191;SDS011;63771;52.580;9.734;2024-03-02T03:59:01;15.27;;;11.07;;
75191;SDS011;63771;52.580;9.734;2024-03-02T04:01:27;16.13;;;11.07;;
75191;SDS011;63771;52.580;9.734;2024-03-02T04:03:52;19.10;;;11.33;;
75191;SDS011;63771;52.580;9.734;2024-03-02T04:06:17;13.43;;;9.87;;
75191;SDS011;63771;52.580;9.734;2024-03-02T04:08:43;17.08;;;10.02;;
75191;SDS011;63771;52.580;9.734;2024-03-02T04:11:08;16.50;;;10.03;;
75191;SDS011;63771;52.580;9.734;2024-03-02T04:13:33;16.00;;;10.10;;
75191;SDS011;63771;52.580;9.734;2024-03-02T04:15:59;18.63;;;9.93;;
75191;SDS011;63771;52.580;9.734;2024-03-02T04:18:24;22.38;;;9.90;;
75191;SDS011;63771;52.580;9.734;2024-03-02T04:20:49;17.08;;;10.02;;
75191;SDS011;63771;52.580;9.734;2024-03-02T04:23:15;14.73;;;10.27;;
75191;SDS011;63771;52.580;9.734;2024-03-02T04:25:40;16.00;;;9.97;;
75191;SDS011;63771;52.580;9.734;2024-03-02T04:28:05;14.85;;;9.52;;
75191;SDS011;63771;52.580;9.734;2024-03-02T04:30:31;17.53;;;9.33;;
75191;SDS011;63771;52.580;9.734;2024-03-02T04:32:56;17.10;;;10.00;;
75191;SDS011;63771;52.580;9.734;2024-03-02T04:35:22;17.50;;;10.05;;
75191;SDS011;63771;52.580;9.734;2024-03-02T04:37:47;17.20;;;11.10;;
75191;SDS011;63771;52.580;9.734;2024-03-02T04:40:12;14.73;;;9.27;;
75191;SDS011;63771;52.580;9.734;2024-03-02T04:42:38;13.57;;;9.02;;
75191;SDS011;63771;52.580;9.734;2024-03-02T04:45:03;16.53;;;10.57;;
75191;SDS011;63771;52.580;9.734;2024-03-02T04:47:29;14.18;;;9.40;;
75191;SDS011;63771;52.580;9.734;2024-03-02T04:49:54;15.80;;;9.68;;
75191;SDS011;63771;52.580;9.734;2024-03-02T04:52:19;20.23;;;11.35;;
75191;SDS011;63771;52.580;9.734;2024-03-02T04:54:45;15.13;;;10.13;;
75191;SDS011;63771;52.580;9.734;2024-03-02T04:57:28;16.17;;;10.20;;
75191;SDS011;63771;52.580;9.734;2024-03-02T04:59:54;16.90;;;10.37;;
75191;SDS011;63771;52.580;9.734;2024-03-02T05:02:19;16.73;;;9.93;;
75191;SDS011;63771;52.580;9.734;2024-03-02T05:04:44;14.63;;;10.07;;
75191;SDS011;63771;52.580;9.734;2024-03-02T05:07:10;16.98;;;9.52;;
75191;SDS011;63771;52.580;9.734;2024-03-02T05:09:35;15.10;;;9.70;;
75191;SDS011;63771;52.580;9.734;2024-03-02T05:12:00;16.30;;;9.70;;
75191;SDS011;63771;52.580;9.734;2024-03-02T05:14:45;22.25;;;10.85;;
75191;SDS011;63771;52.580;9.734;2024-03-02T05:17:10;13.20;;;9.52;;
75191;SDS011;63771;52.580;9.734;2024-03-02T05:19:36;15.23;;;8.97;;
75191;SDS011;63771;52.580;9.734;2024-03-02T05:22:01;17.00;;;11.03;;
75191;SDS011;63771;52.580;9.734;2024-03-02T05:24:27;13.75;;;9.70;;
75191;SDS011;63771;52.580;9.734;2024-03-02T05:26:53;18.63;;;10.75;;
75191;SDS011;63771;52.580;9.734;2024-03-02T05:29:18;16.15;;;10.25;;
75191;SDS011;63771;52.580;9.734;2024-03-02T05:31:43;24.63;;;11.93;;
75191;SDS011;63771;52.580;9.734;2024-03-02T05:34:09;18.95;;;11.32;;
75191;SDS011;63771;52.580;9.734;2024-03-02T05:36:34;17.67;;;10.97;;
75191;SDS011;63771;52.580;9.734;2024-03-02T05:38:59;15.97;;;10.13;;
75191;SDS011;63771;52.580;9.734;2024-03-02T05:41:25;18.40;;;12.57;;
75191;SDS011;63771;52.580;9.734;2024-03-02T05:43:50;16.07;;;9.63;;
75191;SDS011;63771;52.580;9.734;2024-03-02T05:46:15;15.60;;;9.97;;
75191;SDS011;63771;52.580;9.734;2024-03-02T05:48:41;18.20;;;10.90;;
75191;SDS011;63771;52.580;9.734;2024-03-02T05:51:06;16.85;;;11.07;;
75191;SDS011;63771;52.580;9.734;2024-03-02T05:53:31;19.67;;;10.80;;
75191;SDS011;63771;52.580;9.734;2024-03-02T05:55:57;20.20;;;11.23;;
75191;SDS011;63771;52.580;9.734;2024-03-02T05:58:22;20.83;;;11.67;;
75191;SDS011;63771;52.580;9.734;2024-03-02T06:01:18;16.05;;;9.82;;
75191;SDS011;63771;52.580;9.734;2024-03-02T06:03:44;15.68;;;10.57;;
75191;SDS011;63771;52.580;9.734;2024-03-02T06:06:09;20.43;;;10.53;;
75191;SDS011;63771;52.580;9.734;2024-03-02T06:08:35;21.50;;;11.38;;
75191;SDS011;63771;52.580;9.734;2024-03-02T06:11:00;16.08;;;11.00;;
75191;SDS011;63771;52.580;9.734;2024-03-02T06:13:25;16.80;;;10.27;;
75191;SDS011;63771;52.580;9.734;2024-03-02T06:15:51;16.55;;;10.77;;
75191;SDS011;63771;52.580;9.734;2024-03-02T06:18:17;20.25;;;11.48;;
75191;SDS011;63771;52.580;9.734;2024-03-02T06:20:42;18.10;;;11.47;;
75191;SDS011;63771;52.580;9.734;2024-03-02T06:23:07;19.90;;;10.80;;
75191;SDS011;63771;52.580;9.734;2024-03-02T06:25:33;16.83;;;10.85;;
75191;SDS011;63771;52.580;9.734;2024-03-02T06:27:58;16.60;;;10.07;;
75191;SDS011;63771;52.580;9.734;2024-03-02T06:30:24;16.65;;;10.77;;
75191;SDS011;63771;52.580;9.734;2024-03-02T06:32:49;16.85;;;10.60;;
75191;SDS011;63771;52.580;9.734;2024-03-02T06:35:14;16.30;;;9.85;;
75191;SDS011;63771;52.580;9.734;2024-03-02T06:37:40;16.13;;;12.13;;
75191;SDS011;63771;52.580;9.734;2024-03-02T06:40:06;17.23;;;10.23;;
75191;SDS011;63771;52.580;9.734;2024-03-02T06:42:35;20.45;;;11.02;;
75191;SDS011;63771;52.580;9.734;2024-03-02T06:45:01;19.08;;;11.82;;
75191;SDS011;63771;52.580;9.734;2024-03-02T06:47:27;18.55;;;11.40;;
75191;SDS011;63771;52.580;9.734;2024-03-02T06:49:53;20.52;;;10.93;;
75191;SDS011;63771;52.580;9.734;2024-03-02T06:52:18;20.85;;;11.23;;
75191;SDS011;63771;52.580;9.734;2024-03-02T06:54:45;18.77;;;11.15;;
75191;SDS011;63771;52.580;9.734;2024-03-02T06:57:10;23.35;;;11.75;;
75191;SDS011;63771;52.580;9.734;2024-03-02T06:59:36;18.80;;;11.15;;
75191;SDS011;63771;52.580;9.734;2024-03-02T07:02:01;24.17;;;12.70;;
75191;SDS011;63771;52.580;9.734;2024-03-02T07:04:27;21.00;;;11.18;;
75191;SDS011;63771;52.580;9.734;2024-03-02T07:06:52;24.40;;;14.33;;
75191;SDS011;63771;52.580;9.734;2024-03-02T07:09:17;24.70;;;13.00;;
75191;SDS011;63771;52.580;9.734;2024-03-02T07:11:43;22.10;;;12.27;;
75191;SDS011;63771;52.580;9.734;2024-03-02T07:14:08;19.23;;;12.73;;
75191;SDS011;63771;52.580;9.734;2024-03-02T07:16:33;22.92;;;14.02;;
75191;SDS011;63771;52.580;9.734;2024-03-02T07:19:02;20.95;;;11.93;;
75191;SDS011;63771;52.580;9.734;2024-03-02T07:21:27;20.75;;;13.77;;
75191;SDS011;63771;52.580;9.734;2024-03-02T07:23:53;20.73;;;11.93;;
75191;SDS011;63771;52.580;9.734;2024-03-02T07:26:18;22.17;;;12.65;;
75191;SDS011;63771;52.580;9.734;2024-03-02T07:28:45;18.55;;;12.15;;
75191;SDS011;63771;52.580;9.734;2024-03-02T07:31:12;18.25;;;11.80;;
75191;SDS011;63771;52.580;9.734;2024-03-02T07:33:38;17.13;;;12.13;;
75191;SDS011;63771;52.580;9.734;2024-03-02T07:36:03;22.05;;;13.60;;
75191;SDS011;63771;52.580;9.734;2024-03-02T07:38:29;23.42;;;12.07;;
75191;SDS011;63771;52.580;9.734;2024-03-02T07:40:54;19.77;;;11.80;;
75191;SDS011;63771;52.580;9.734;2024-03-02T07:43:20;18.70;;;12.75;;
75191;SDS011;63771;52.580;9.734;2024-03-02T07:45:46;21.40;;;12.55;;
75191;SDS011;63771;52.580;9.734;2024-03-02T07:48:12;23.42;;;14.10;;
75191;SDS011;63771;52.580;9.734;2024-03-02T07:50:37;22.98;;;11.98;;
75191;SDS011;63771;52.580;9.734;2024-03-02T07:53:04;19.92;;;11.43;;
75191;SDS011;63771;52.580;9.734;2024-03-02T07:55:30;21.45;;;12.70;;
75191;SDS011;63771;52.580;9.734;2024-03-02T07:57:55;22.17;;;12.27;;
75191;SDS011;63771;52.580;9.734;2024-03-02T08:00:22;18.73;;;12.20;;
75191;SDS011;63771;52.580;9.734;2024-03-02T08:02:48;15.70;;;11.15;;
75191;SDS011;63771;52.580;9.734;2024-03-02T08:05:13;20.83;;;11.95;;
75191;SDS011;63771;52.580;9.734;2024-03-02T08:07:39;18.67;;;11.18;;
75191;SDS011;63771;52.580;9.734;2024-03-02T08:10:04;21.92;;;12.57;;
75191;SDS011;63771;52.580;9.734;2024-03-02T08:12:30;17.75;;;11.32;;
75191;SDS011;63771;52.580;9.734;2024-03-02T08:14:55;19.40;;;11.87;;
75191;SDS011;63771;52.580;9.734;2024-03-02T08:17:21;21.90;;;12.20;;
75191;SDS011;63771;52.580;9.734;2024-03-02T08:19:46;19.15;;;12.27;;
75191;SDS011;63771;52.580;9.734;2024-03-02T08:22:13;19.50;;;12.55;;
75191;SDS011;63771;52.580;9.734;2024-03-02T08:24:40;20.45;;;13.23;;
75191;SDS011;63771;52.580;9.734;2024-03-02T08:27:05;23.23;;;13.05;;
75191;SDS011;63771;52.580;9.734;2024-03-02T08:29:31;20.90;;;14.25;;
75191;SDS011;63771;52.580;9.734;2024-03-02T08:31:56;21.00;;;13.18;;
75191;SDS011;63771;52.580;9.734;2024-03-02T08:34:22;25.13;;;14.90;;
75191;SDS011;63771;52.580;9.734;2024-03-02T08:36:47;26.57;;;15.80;;
75191;SDS011;63771;52.580;9.734;2024-03-02T08:39:13;20.52;;;13.73;;
75191;SDS011;63771;52.580;9.734;2024-03-02T08:41:49;20.65;;;11.60;;
75191;SDS011;63771;52.580;9.734;2024-03-02T08:44:14;19.95;;;11.88;;
75191;SDS011;63771;52.580;9.734;2024-03-02T08:46:40;17.15;;;12.35;;
75191;SDS011;63771;52.580;9.734;2024-03-02T08:49:06;21.20;;;12.05;;
75191;SDS011;63771;52.580;9.734;2024-03-02T08:51:31;18.23;;;11.63;;
75191;SDS011;63771;52.580;9.734;2024-03-02T08:53:57;18.20;;;11.13;;
75191;SDS011;63771;52.580;9.734;2024-03-02T08:56:23;20.80;;;12.50;;
75191;SDS011;63771;52.580;9.734;2024-03-02T08:58:49;16.08;;;10.80;;
75191;SDS011;63771;52.580;9.734;2024-03-02T09:01:14;16.40;;;10.52;;
75191;SDS011;63771;52.580;9.734;2024-03-02T09:03:41;19.77;;;11.68;;
75191;SDS011;63771;52.580;9.734;2024-03-02T09:06:09;15.20;;;10.18;;
75191;SDS011;63771;52.580;9.734;2024-03-02T09:08:34;16.65;;;10.18;;
75191;SDS011;63771;52.580;9.734;2024-03-02T09:11:01;18.85;;;11.07;;
75191;SDS011;63771;52.580;9.734;2024-03-02T09:13:27;19.23;;;11.50;;
75191;SDS011;63771;52.580;9.734;2024-03-02T09:15:52;17.33;;;10.90;;
75191;SDS011;63771;52.580;9.734;2024-03-02T09:18:18;24.05;;;12.48;;
75191;SDS011;63771;52.580;9.734;2024-03-02T09:20:43;17.60;;;10.67;;
75191;SDS011;63771;52.580;9.734;2024-03-02T09:23:08;19.27;;;10.07;;
75191;SDS011;63771;52.580;9.734;2024-03-02T09:25:34;16.30;;;9.93;;
75191;SDS011;63771;52.580;9.734;2024-03-02T09:27:59;13.63;;;9.85;;
75191;SDS011;63771;52.580;9.734;2024-03-02T09:30:24;13.80;;;9.30;;
75191;SDS011;63771;52.580;9.734;2024-03-02T09:32:50;16.63;;;10.30;;
75191;SDS011;63771;52.580;9.734;2024-03-02T09:35:15;16.17;;;9.70;;
75191;SDS011;63771;52.580;9.734;2024-03-02T09:37:40;13.85;;;8.82;;
75191;SDS011;63771;52.580;9.734;2024-03-02T09:40:06;10.73;;;7.13;;
75191;SDS011;63771;52.580;9.734;2024-03-02T09:42:32;9.95;;;7.75;;
75191;SDS011;63771;52.580;9.734;2024-03-02T09:44:58;9.88;;;8.05;;
75191;SDS011;63771;52.580;9.734;2024-03-02T09:47:24;12.77;;;8.15;;
75191;SDS011;63771;52.580;9.734;2024-03-02T09:49:49;12.33;;;7.30;;
75191;SDS011;63771;52.580;9.734;2024-03-02T09:52:15;12.15;;;7.93;;
75191;SDS011;63771;52.580;9.734;2024-03-02T09:54:41;14.02;;;8.57;;
75191;SDS011;63771;52.580;9.734;2024-03-02T09:57:06;12.23;;;8.07;;
75191;SDS011;63771;52.580;9.734;2024-03-02T09:59:32;10.27;;;7.28;;
75191;SDS011;63771;52.580;9.734;2024-03-02T10:01:58;11.17;;;6.83;;
75191;SDS011;63771;52.580;9.734;2024-03-02T10:04:25;16.23;;;9.18;;
75191;SDS011;63771;52.580;9.734;2024-03-02T10:06:51;12.25;;;7.88;;
75191;SDS011;63771;52.580;9.734;2024-03-02T10:09:26;12.30;;;7.65;;
75191;SDS011;63771;52.580;9.734;2024-03-02T10:11:53;10.80;;;7.43;;
75191;SDS011;63771;52.580;9.734;2024-03-02T10:14:19;12.40;;;7.85;;
75191;SDS011;63771;52.580;9.734;2024-03-02T10:16:45;12.13;;;7.70;;
75191;SDS011;63771;52.580;9.734;2024-03-02T10:19:16;11.77;;;7.40;;
75191;SDS011;63771;52.580;9.734;2024-03-02T10:21:46;14.30;;;8.48;;
75191;SDS011;63771;52.580;9.734;2024-03-02T10:24:15;9.57;;;6.88;;
75191;SDS011;63771;52.580;9.734;2024-03-02T10:26:41;11.20;;;7.28;;
75191;SDS011;63771;52.580;9.734;2024-03-02T10:29:08;11.43;;;7.38;;
75191;SDS011;63771;52.580;9.734;2024-03-02T10:31:35;13.27;;;7.30;;
75191;SDS011;63771;52.580;9.734;2024-03-02T10:34:02;9.32;;;6.47;;
75191;SDS011;63771;52.580;9.734;2024-03-02T10:36:28;10.93;;;7.43;;
75191;SDS011;63771;52.580;9.734;2024-03-02T10:38:55;10.52;;;7.82;;
75191;SDS011;63771;52.580;9.734;2024-03-02T10:41:26;9.15;;;5.97;;
75191;SDS011;63771;52.580;9.734;2024-03-02T10:43:55;12.57;;;6.93;;
75191;SDS011;63771;52.580;9.734;2024-03-02T10:46:26;13.10;;;8.07;;
75191;SDS011;63771;52.580;9.734;2024-03-02T10:48:54;13.80;;;7.35;;
75191;SDS011;63771;52.580;9.734;2024-03-02T10:51:20;9.10;;;6.65;;
75191;SDS011;63771;52.580;9.734;2024-03-02T10:53:45;13.13;;;6.13;;
75191;SDS011;63771;52.580;9.734;2024-03-02T10:56:11;9.20;;;5.68;;
75191;SDS011;63771;52.580;9.734;2024-03-02T10:58:47;10.88;;;7.55;;
75191;SDS011;63771;52.580;9.734;2024-03-02T11:01:15;15.43;;;7.57;;
75191;SDS011;63771;52.580;9.734;2024-03-02T11:03:42;11.45;;;6.85;;
75191;SDS011;63771;52.580;9.734;2024-03-02T11:06:08;10.27;;;6.78;;
75191;SDS011;63771;52.580;9.734;2024-03-02T11:08:36;13.15;;;7.70;;
75191;SDS011;63771;52.580;9.734;2024-03-02T11:13:37;10.95;;;7.13;;
75191;SDS011;63771;52.580;9.734;2024-03-02T11:16:09;11.93;;;7.13;;
75191;SDS011;63771;52.580;9.734;2024-03-02T11:18:41;10.75;;;6.57;;
75191;SDS011;63771;52.580;9.734;2024-03-02T11:21:08;9.65;;;6.88;;
75191;SDS011;63771;52.580;9.734;2024-03-02T11:23:34;12.18;;;7.03;;
75191;SDS011;63771;52.580;9.734;2024-03-02T11:26:19;12.23;;;7.32;;
75191;SDS011;63771;52.580;9.734;2024-03-02T11:28:45;11.02;;;6.32;;
75191;SDS011;63771;52.580;9.734;2024-03-02T11:31:10;6.90;;;5.35;;
75191;SDS011;63771;52.580;9.734;2024-03-02T11:33:36;7.78;;;5.18;;
75191;SDS011;63771;52.580;9.734;2024-03-02T11:36:01;8.47;;;5.10;;
75191;SDS011;63771;52.580;9.734;2024-03-02T11:38:30;8.40;;;5.25;;
75191;SDS011;63771;52.580;9.734;2024-03-02T11:40:57;7.13;;;4.68;;
75191;SDS011;63771;52.580;9.734;2024-03-02T11:43:25;7.90;;;5.40;;
75191;SDS011;63771;52.580;9.734;2024-03-02T11:45:59;8.48;;;4.95;;
75191;SDS011;63771;52.580;9.734;2024-03-02T11:48:25;8.50;;;5.90;;
75191;SDS011;63771;52.580;9.734;2024-03-02T11:50:51;6.95;;;4.30;;
75191;SDS011;63771;52.580;9.734;2024-03-02T11:53:17;7.10;;;4.03;;
75191;SDS011;63771;52.580;9.734;2024-03-02T11:55:44;5.40;;;4.32;;
75191;SDS011;63771;52.580;9.734;2024-03-02T11:58:13;4.70;;;4.07;;
75191;SDS011;63771;52.580;9.734;2024-03-02T12:00:39;4.50;;;3.75;;
75191;SDS011;63771;52.580;9.734;2024-03-02T12:03:08;6.80;;;4.70;;
75191;SDS011;63771;52.580;9.734;2024-03-02T12:05:35;6.75;;;4.85;;
75191;SDS011;63771;52.580;9.734;2024-03-02T12:08:02;7.50;;;4.40;;
75191;SDS011;63771;52.580;9.734;2024-03-02T12:10:29;7.00;;;3.97;;
75191;SDS011;63771;52.580;9.734;2024-03-02T12:12:55;4.35;;;3.60;;
75191;SDS011;63771;52.580;9.734;2024-03-02T12:15:28;4.38;;;3.78;;
75191;SDS011;63771;52.580;9.734;2024-03-02T12:17:57;5.55;;;3.30;;
75191;SDS011;63771;52.580;9.734;2024-03-02T12:20:24;5.30;;;3.38;;
75191;SDS011;63771;52.580;9.734;2024-03-02T12:22:52;5.55;;;4.05;;
75191;SDS011;63771;52.580;9.734;2024-03-02T12:25:22;4.40;;;3.83;;
75191;SDS011;63771;52.580;9.734;2024-03-02T12:27:49;5.32;;;4.07;;
75191;SDS011;63771;52.580;9.734;2024-03-02T12:30:19;5.20;;;3.40;;
75191;SDS011;63771;52.580;9.734;2024-03-02T12:32:45;4.53;;;3.72;;
75191;SDS011;63771;52.580;9.734;2024-03-02T12:35:12;4.40;;;3.67;;
75191;SDS011;63771;52.580;9.734;2024-03-02T12:37:44;12.10;;;6.32;;
75191;SDS011;63771;52.580;9.734;2024-03-02T12:40:11;10.30;;;5.68;;
75191;SDS011;63771;52.580;9.734;2024-03-02T12:42:38;6.95;;;5.05;;
75191;SDS011;63771;52.580;9.734;2024-03-02T12:45:03;6.78;;;4.15;;
75191;SDS011;63771;52.580;9.734;2024-03-02T12:47:29;10.95;;;5.10;;
75191;SDS011;63771;52.580;9.734;2024-03-02T12:49:55;7.63;;;4.97;;
75191;SDS011;63771;52.580;9.734;2024-03-02T12:52:21;9.52;;;4.95;;
75191;SDS011;63771;52.580;9.734;2024-03-02T12:54:47;7.45;;;5.38;;
75191;SDS011;63771;52.580;9.734;2024-03-02T12:57:16;5.95;;;3.55;;
75191;SDS011;63771;52.580;9.734;2024-03-02T12:59:46;6.28;;;4.20;;
75191;SDS011;63771;52.580;9.734;2024-03-02T13:02:18;8.63;;;5.25;;
75191;SDS011;63771;52.580;9.734;2024-03-02T13:04:44;8.00;;;5.10;;
75191;SDS011;63771;52.580;9.734;2024-03-02T13:07:10;5.70;;;4.68;;
75191;SDS011;63771;52.580;9.734;2024-03-02T13:09:37;6.97;;;4.35;;
75191;SDS011;63771;52.580;9.734;2024-03-02T13:12:02;6.93;;;4.88;;
75191;SDS011;63771;52.580;9.734;2024-03-02T13:14:31;6.40;;;4.15;;
75191;SDS011;63771;52.580;9.734;2024-03-02T13:16:57;5.07;;;3.53;;
75191;SDS011;63771;52.580;9.734;2024-03-02T13:19:23;4.13;;;3.60;;
75191;SDS011;63771;52.580;9.734;2024-03-02T13:21:48;4.43;;;2.87;;
75191;SDS011;63771;52.580;9.734;2024-03-02T13:24:15;3.67;;;2.92;;
75191;SDS011;63771;52.580;9.734;2024-03-02T13:26:40;6.07;;;3.30;;
75191;SDS011;63771;52.580;9.734;2024-03-02T13:29:06;4.32;;;3.70;;
75191;SDS011;63771;52.580;9.734;2024-03-02T13:31:32;4.95;;;2.90;;
75191;SDS011;63771;52.580;9.734;2024-03-02T13:33:58;6.20;;;2.67;;
75191;SDS011;63771;52.580;9.734;2024-03-02T13:36:23;2.65;;;2.28;;
75191;SDS011;63771;52.580;9.734;2024-03-02T13:38:49;4.63;;;2.95;;
75191;SDS011;63771;52.580;9.734;2024-03-02T13:41:14;3.22;;;2.35;;
75191;SDS011;63771;52.580;9.734;2024-03-02T13:43:39;3.72;;;2.80;;
75191;SDS011;63771;52.580;9.734;2024-03-02T13:46:05;3.20;;;2.60;;
75191;SDS011;63771;52.580;9.734;2024-03-02T13:48:31;2.65;;;2.40;;
75191;SDS011;63771;52.580;9.734;2024-03-02T13:50:57;3.03;;;2.70;;
75191;SDS011;63771;52.580;9.734;2024-03-02T13:53:22;2.95;;;2.63;;
75191;SDS011;63771;52.580;9.734;2024-03-02T13:55:48;5.60;;;3.33;;
75191;SDS011;63771;52.580;9.734;2024-03-02T13:58:14;4.82;;;3.08;;
75191;SDS011;63771;52.580;9.734;2024-03-02T14:00:39;5.15;;;3.65;;
75191;SDS011;63771;52.580;9.734;2024-03-02T14:03:05;4.03;;;3.20;;
75191;SDS011;63771;52.580;9.734;2024-03-02T14:05:31;3.95;;;3.38;;
75191;SDS011;63771;52.580;9.734;2024-03-02T14:07:57;5.82;;;4.22;;
75191;SDS011;63771;52.580;9.734;2024-03-02T14:10:22;6.00;;;4.03;;
75191;SDS011;63771;52.580;9.734;2024-03-02T14:12:48;5.45;;;4.60;;
75191;SDS011;63771;52.580;9.734;2024-03-02T14:15:14;9.50;;;4.03;;
75191;SDS011;63771;52.580;9.734;2024-03-02T14:17:39;4.25;;;3.85;;
75191;SDS011;63771;52.580;9.734;2024-03-02T14:20:05;5.70;;;3.65;;
75191;SDS011;63771;52.580;9.734;2024-03-02T14:22:31;4.80;;;2.83;;
75191;SDS011;63771;52.580;9.734;2024-03-02T14:24:56;2.42;;;2.22;;
75191;SDS011;63771;52.580;9.734;2024-03-02T14:27:22;2.72;;;2.50;;
75191;SDS011;63771;52.580;9.734;2024-03-02T14:29:47;3.43;;;2.50;;